Time;durP1;ratioP1;P1;durP2;ratioP2;P2;SDS_P1;SDS_P2;PMS_P1;PMS_P2;Temp;Humidity;BMP_temperature;BMP_pressure;BME280_temperature;BME280_humidity;BME280_pressure;Samples;Min_cycle;Max_cycle;Signal;HPM_P1;HPM_P2
2021/01/12 00:01:11;;;;;;;30.58;11.68;;;;;;;;;;4917773;29;20104;-77
2021/01/12 00:03:37;;;;;;;36.60;13.82;;;;;;;;;;4917767;29;20493;-76
2021/01/12 00:06:04;;;;;;;49.17;13.15;;;;;;;;;;4917693;29;20477;-76
2021/01/12 00:08:30;;;;;;;26.02;11.30;;;;;;;;;;4917482;29;20028;-77
2021/01/12 00:10:56;;;;;;;30.90;11.77;;;;;;;;;;4917623;29;20028;-78
2021/01/12 00:13:23;;;;;;;34.70;10.18;;;;;;;;;;4917648;29;20370;-80
2021/01/12 00:15:49;;;;;;;33.67;9.65;;;;;;;;;;4918673;29;20050;-77
2021/01/12 00:18:15;;;;;;;33.78;11.57;;;;;;;;;;4917587;29;20033;-79
2021/01/12 00:20:41;;;;;;;36.20;13.88;;;;;;;;;;4917397;29;20135;-78
2021/01/12 00:23:07;;;;;;;27.80;9.45;;;;;;;;;;4917368;29;20040;-77
2021/01/12 00:25:33;;;;;;;28.35;11.57;;;;;;;;;;4917372;29;20034;-76
2021/01/12 00:27:59;;;;;;;35.15;11.70;;;;;;;;;;4917175;29;20036;-78
2021/01/12 00:30:25;;;;;;;31.65;10.43;;;;;;;;;;4917317;29;20051;-77
2021/01/12 00:32:51;;;;;;;24.00;9.20;;;;;;;;;;4917217;29;20068;-77
2021/01/12 00:35:18;;;;;;;25.50;10.23;;;;;;;;;;4917296;29;20063;-79
2021/01/12 00:37:44;;;;;;;29.25;11.45;;;;;;;;;;4917326;29;20112;-78
2021/01/12 00:40:11;;;;;;;25.77;11.38;;;;;;;;;;4918553;29;20032;-76
2021/01/12 00:42:37;;;;;;;28.25;9.52;;;;;;;;;;4916790;29;20036;-77
2021/01/12 00:45:04;;;;;;;26.67;10.90;;;;;;;;;;4917132;29;20512;-76
2021/01/12 00:47:32;;;;;;;31.80;11.25;;;;;;;;;;4916810;29;20090;-78
2021/01/12 00:49:58;;;;;;;29.85;9.70;;;;;;;;;;4918308;29;20085;-80
2021/01/12 00:52:24;;;;;;;37.17;10.20;;;;;;;;;;4916991;29;20473;-77
2021/01/12 00:54:50;;;;;;;34.10;11.68;;;;;;;;;;4916972;29;20052;-80
2021/01/12 00:57:16;;;;;;;26.88;11.02;;;;;;;;;;4916698;29;20032;-79
2021/01/12 00:59:45;;;;;;;27.23;10.85;;;;;;;;;;4916818;29;20039;-78
2021/01/12 01:02:11;;;;;;;31.73;10.85;;;;;;;;;;4916532;29;20036;-77
2021/01/12 01:04:37;;;;;;;25.30;10.18;;;;;;;;;;4916793;29;20040;-77
2021/01/12 01:07:04;;;;;;;39.92;12.18;;;;;;;;;;4916713;29;20160;-80
2021/01/12 01:09:30;;;;;;;40.95;13.93;;;;;;;;;;4916373;29;20039;-80
2021/01/12 01:11:56;;;;;;;38.83;13.48;;;;;;;;;;4916694;29;20024;-79
2021/01/12 01:14:22;;;;;;;36.10;11.43;;;;;;;;;;4916694;29;20552;-75
2021/01/12 01:16:49;;;;;;;28.63;11.82;;;;;;;;;;4917901;29;20148;-80
2021/01/12 01:19:15;;;;;;;40.50;13.52;;;;;;;;;;4916606;29;20028;-76
2021/01/12 06:19:07;;;;;;;25.70;8.93;;;;;;;;;;5093486;23;20056;-85
2021/01/12 06:21:34;;;;;;;27.23;7.32;;;;;;;;;;4933026;29;20023;-79
2021/01/12 06:24:01;;;;;;;35.15;10.27;;;;;;;;;;4933589;29;20043;-80
2021/01/12 06:26:27;;;;;;;30.85;8.18;;;;;;;;;;4934691;29;20499;-81
2021/01/12 06:28:54;;;;;;;25.35;7.32;;;;;;;;;;4935941;29;20409;-80
2021/01/12 06:31:20;;;;;;;17.17;6.75;;;;;;;;;;4936121;29;20095;-80
2021/01/12 06:33:55;;;;;;;28.48;8.73;;;;;;;;;;4930348;29;20055;-83
2021/01/12 06:36:24;;;;;;;28.13;9.40;;;;;;;;;;4915374;29;20032;-81
2021/01/12 06:38:51;;;;;;;22.13;9.07;;;;;;;;;;4915501;29;20028;-81
2021/01/12 06:41:21;;;;;;;25.45;8.18;;;;;;;;;;4915400;29;20032;-81
2021/01/12 06:43:48;;;;;;;26.58;8.18;;;;;;;;;;4916570;29;20110;-81
2021/01/12 06:46:16;;;;;;;26.48;9.68;;;;;;;;;;4916538;29;20070;-81
2021/01/12 06:48:42;;;;;;;28.52;9.52;;;;;;;;;;4916325;29;20501;-79
2021/01/12 06:51:09;;;;;;;29.98;8.70;;;;;;;;;;4916507;29;20032;-79
2021/01/12 06:53:35;;;;;;;27.35;9.38;;;;;;;;;;4916652;29;20039;-80
2021/01/12 06:56:07;;;;;;;34.85;9.70;;;;;;;;;;4915122;29;20028;-81
2021/01/12 06:58:33;;;;;;;26.50;8.65;;;;;;;;;;4916617;29;20028;-80
2021/01/12 07:01:00;;;;;;;35.92;9.95;;;;;;;;;;4916273;29;20028;-77
2021/01/12 07:03:31;;;;;;;29.02;9.60;;;;;;;;;;4920093;29;20144;-79
2021/01/12 07:06:01;;;;;;;22.48;8.88;;;;;;;;;;4920055;29;20077;-78
2021/01/12 07:08:29;;;;;;;26.02;9.02;;;;;;;;;;4920248;29;20051;-79
2021/01/12 07:10:55;;;;;;;28.85;9.02;;;;;;;;;;4919769;29;20032;-78
2021/01/12 07:13:21;;;;;;;37.08;10.68;;;;;;;;;;4919935;29;20028;-80
2021/01/12 07:15:50;;;;;;;36.97;9.15;;;;;;;;;;4919894;29;20150;-78
2021/01/12 07:18:21;;;;;;;24.75;8.93;;;;;;;;;;4932362;29;20449;-80
2021/01/12 07:20:47;;;;;;;35.38;9.57;;;;;;;;;;4937345;29;20027;-79
2021/01/12 07:23:14;;;;;;;36.35;9.00;;;;;;;;;;4938729;29;20032;-79
2021/01/12 07:25:44;;;;;;;44.25;10.55;;;;;;;;;;4938741;29;20034;-79
2021/01/12 07:28:10;;;;;;;28.00;8.15;;;;;;;;;;4937375;29;20393;-79
2021/01/12 07:30:37;;;;;;;42.85;10.27;;;;;;;;;;4938407;29;20032;-80
2021/01/12 07:33:04;;;;;;;35.28;9.75;;;;;;;;;;4937034;29;20036;-80
2021/01/12 07:35:31;;;;;;;44.33;10.45;;;;;;;;;;4938698;29;20092;-79
2021/01/12 07:37:57;;;;;;;35.25;11.40;;;;;;;;;;4937137;29;20370;-79
2021/01/12 07:40:23;;;;;;;27.45;9.40;;;;;;;;;;4940607;29;20043;-79
2021/01/12 07:42:50;;;;;;;31.70;9.93;;;;;;;;;;4937988;29;20074;-79
2021/01/12 07:45:17;;;;;;;29.23;9.30;;;;;;;;;;4937197;29;20036;-80
2021/01/12 07:47:44;;;;;;;29.23;9.18;;;;;;;;;;4940538;29;20035;-80
2021/01/12 07:50:10;;;;;;;26.27;8.82;;;;;;;;;;4938709;29;20032;-80
2021/01/12 07:52:36;;;;;;;37.30;10.15;;;;;;;;;;4936979;29;20024;-79
2021/01/12 07:55:03;;;;;;;21.75;8.52;;;;;;;;;;4938182;29;20038;-79
2021/01/12 07:57:29;;;;;;;29.60;10.02;;;;;;;;;;4937848;29;20020;-79
2021/01/12 07:59:55;;;;;;;30.60;9.75;;;;;;;;;;4938023;29;20032;-79
2021/01/12 08:02:24;;;;;;;35.58;10.40;;;;;;;;;;4937988;29;20028;-79
2021/01/12 08:04:50;;;;;;;27.73;9.82;;;;;;;;;;4936819;29;20492;-83
2021/01/12 08:07:25;;;;;;;27.88;10.48;;;;;;;;;;4938099;29;20422;-80
2021/01/12 08:09:53;;;;;;;45.38;11.40;;;;;;;;;;4936609;29;20095;-80
2021/01/12 08:12:26;;;;;;;34.38;10.10;;;;;;;;;;4942513;29;20551;-81
2021/01/12 08:14:53;;;;;;;27.10;9.32;;;;;;;;;;4937209;29;20413;-81
2021/01/12 08:17:26;;;;;;;33.13;9.85;;;;;;;;;;4930490;29;20086;-85
2021/01/12 08:19:56;;;;;;;37.35;10.38;;;;;;;;;;4936054;29;20059;-82
2021/01/12 08:22:23;;;;;;;37.05;9.68;;;;;;;;;;4935833;29;20067;-81
2021/01/12 08:24:49;;;;;;;28.02;8.25;;;;;;;;;;4937601;29;20039;-81
2021/01/12 08:27:19;;;;;;;28.67;8.13;;;;;;;;;;4936291;29;20027;-79
2021/01/12 08:29:45;;;;;;;30.25;9.60;;;;;;;;;;4936423;29;20063;-79
2021/01/12 08:32:12;;;;;;;29.50;10.88;;;;;;;;;;4936397;29;20031;-79
2021/01/12 08:34:45;;;;;;;30.05;11.18;;;;;;;;;;4937047;29;20436;-79
2021/01/12 08:37:12;;;;;;;26.13;9.00;;;;;;;;;;4935778;29;20087;-80
2021/01/12 08:39:38;;;;;;;28.60;9.77;;;;;;;;;;4936227;29;20095;-82
2021/01/12 08:42:06;;;;;;;31.02;9.98;;;;;;;;;;4936167;29;20495;-79
2021/01/12 08:44:39;;;;;;;29.35;9.60;;;;;;;;;;4936145;29;20527;-81
2021/01/12 08:47:05;;;;;;;29.60;9.82;;;;;;;;;;4935848;29;20044;-81
2021/01/12 08:49:33;;;;;;;33.22;9.63;;;;;;;;;;4936031;29;20035;-80
2021/01/12 08:51:59;;;;;;;29.35;9.38;;;;;;;;;;4935905;29;20099;-80
2021/01/12 08:54:26;;;;;;;25.58;8.68;;;;;;;;;;4936104;29;20063;-81
2021/01/12 08:56:55;;;;;;;27.05;8.40;;;;;;;;;;4936729;29;20415;-81
2021/01/12 08:59:26;;;;;;;34.95;9.27;;;;;;;;;;4937212;29;20020;-85
2021/01/12 09:01:52;;;;;;;23.05;8.80;;;;;;;;;;4935645;29;20446;-80
2021/01/12 09:04:19;;;;;;;22.90;8.00;;;;;;;;;;4936991;29;20042;-85
2021/01/12 09:06:45;;;;;;;27.92;9.77;;;;;;;;;;4936961;29;20024;-80
2021/01/12 09:09:15;;;;;;;26.38;9.40;;;;;;;;;;4935416;29;20027;-79
2021/01/12 09:11:45;;;;;;;27.30;9.82;;;;;;;;;;4935426;29;20046;-80
2021/01/12 09:14:11;;;;;;;25.20;9.43;;;;;;;;;;4935438;29;20028;-81
2021/01/12 09:16:39;;;;;;;22.15;9.85;;;;;;;;;;4936601;29;20055;-85
2021/01/12 09:19:12;;;;;;;35.17;10.30;;;;;;;;;;4916254;29;20449;-81
2021/01/12 09:21:38;;;;;;;27.33;9.85;;;;;;;;;;4917754;29;20032;-84
2021/01/12 09:24:06;;;;;;;33.40;10.23;;;;;;;;;;4915867;29;20059;-80
2021/01/12 09:26:34;;;;;;;29.83;12.10;;;;;;;;;;4917550;29;20032;-84
2021/01/12 09:29:00;;;;;;;34.03;10.30;;;;;;;;;;4917564;29;20512;-79
2021/01/12 09:31:26;;;;;;;32.30;10.57;;;;;;;;;;4917474;29;20028;-79
2021/01/12 09:33:53;;;;;;;37.17;11.88;;;;;;;;;;4916961;29;20040;-79
2021/01/12 09:36:24;;;;;;;29.38;8.85;;;;;;;;;;4916174;29;20385;-79
2021/01/12 09:38:51;;;;;;;34.42;11.10;;;;;;;;;;4916077;29;20032;-80
2021/01/12 09:41:22;;;;;;;29.15;11.52;;;;;;;;;;4916514;29;20035;-80
2021/01/12 09:43:48;;;;;;;37.40;11.90;;;;;;;;;;4916168;29;20028;-85
2021/01/12 09:46:15;;;;;;;31.98;11.75;;;;;;;;;;4915827;29;20043;-80
2021/01/12 09:48:41;;;;;;;30.40;11.52;;;;;;;;;;4916038;29;20025;-79
2021/01/12 09:51:10;;;;;;;38.40;11.20;;;;;;;;;;4915927;29;20063;-80
2021/01/12 09:53:36;;;;;;;28.20;10.43;;;;;;;;;;4915919;29;20028;-78
2021/01/12 09:56:02;;;;;;;43.25;13.05;;;;;;;;;;4915487;29;20059;-79
2021/01/12 09:58:28;;;;;;;31.00;11.10;;;;;;;;;;4915827;29;20065;-79
2021/01/12 10:00:55;;;;;;;42.15;12.82;;;;;;;;;;4915676;29;20028;-80
2021/01/12 10:03:21;;;;;;;28.42;10.05;;;;;;;;;;4915544;29;20397;-78
2021/01/12 10:05:47;;;;;;;35.85;11.65;;;;;;;;;;4915292;29;20039;-79
2021/01/12 10:08:13;;;;;;;29.25;10.30;;;;;;;;;;4915528;29;20040;-82
2021/01/12 10:10:39;;;;;;;33.67;11.50;;;;;;;;;;4917044;29;20119;-79
2021/01/12 10:13:05;;;;;;;34.10;11.63;;;;;;;;;;4915643;29;20024;-79
2021/01/12 10:15:32;;;;;;;30.60;9.90;;;;;;;;;;4915511;29;20039;-82
2021/01/12 10:17:58;;;;;;;30.98;9.13;;;;;;;;;;4927107;29;20826;-80
2021/01/12 10:20:25;;;;;;;29.38;10.05;;;;;;;;;;4926634;29;20035;-78
2021/01/12 10:22:51;;;;;;;34.08;10.63;;;;;;;;;;4924267;29;20079;-78
2021/01/12 10:25:17;;;;;;;40.40;13.15;;;;;;;;;;4924754;29;20040;-79
2021/01/12 10:27:45;;;;;;;34.45;10.95;;;;;;;;;;4924725;29;20058;-80
2021/01/12 10:30:12;;;;;;;33.70;11.70;;;;;;;;;;4923516;29;20036;-79
2021/01/12 10:32:41;;;;;;;36.95;12.75;;;;;;;;;;4926192;29;20477;-79
2021/01/12 10:35:07;;;;;;;32.80;10.88;;;;;;;;;;4925509;29;20020;-80
2021/01/12 10:37:33;;;;;;;30.30;10.80;;;;;;;;;;4927937;29;20457;-80
2021/01/12 10:40:00;;;;;;;38.28;12.40;;;;;;;;;;4927483;29;20027;-80
2021/01/12 10:42:26;;;;;;;31.80;11.27;;;;;;;;;;4927708;29;20051;-81
2021/01/12 10:44:52;;;;;;;36.90;12.68;;;;;;;;;;4926792;29;20054;-80
2021/01/12 10:47:19;;;;;;;26.02;9.18;;;;;;;;;;4927657;29;20024;-82
2021/01/12 10:49:45;;;;;;;43.83;14.38;;;;;;;;;;4928484;29;20444;-79
2021/01/12 10:52:11;;;;;;;39.10;11.55;;;;;;;;;;4928363;29;20030;-79
2021/01/12 10:54:37;;;;;;;37.45;13.48;;;;;;;;;;4926704;29;20036;-79
2021/01/12 10:57:04;;;;;;;38.38;12.57;;;;;;;;;;4928877;29;20476;-79
2021/01/12 10:59:30;;;;;;;42.17;11.65;;;;;;;;;;4926442;29;20505;-79
2021/01/12 11:01:58;;;;;;;32.80;10.43;;;;;;;;;;4923377;29;20393;-82
2021/01/12 11:04:25;;;;;;;30.88;10.43;;;;;;;;;;4918335;29;20055;-82
2021/01/12 11:06:52;;;;;;;41.53;10.45;;;;;;;;;;4919722;29;20095;-80
2021/01/12 11:09:20;;;;;;;30.48;12.02;;;;;;;;;;4918819;29;20033;-79
2021/01/12 11:11:47;;;;;;;32.40;10.30;;;;;;;;;;4918526;29;20473;-80
2021/01/12 11:14:14;;;;;;;40.00;12.88;;;;;;;;;;4918863;29;20426;-79
2021/01/12 11:16:40;;;;;;;43.40;13.00;;;;;;;;;;4920015;29;20032;-80
2021/01/12 11:19:11;;;;;;;38.58;13.65;;;;;;;;;;4937496;29;20083;-80
2021/01/12 11:21:43;;;;;;;38.95;11.38;;;;;;;;;;4938785;29;20027;-80
2021/01/12 11:24:12;;;;;;;33.70;11.88;;;;;;;;;;4937216;29;20039;-80
2021/01/12 11:26:39;;;;;;;40.55;12.55;;;;;;;;;;4937532;29;20031;-80
2021/01/12 11:29:05;;;;;;;30.20;10.65;;;;;;;;;;4937444;29;20131;-80
2021/01/12 11:31:31;;;;;;;29.60;9.60;;;;;;;;;;4939021;29;20024;-82
2021/01/12 11:33:58;;;;;;;40.08;11.85;;;;;;;;;;4937611;29;20210;-82
2021/01/12 11:36:24;;;;;;;44.95;12.75;;;;;;;;;;4940332;29;20098;-85
2021/01/12 11:38:50;;;;;;;34.15;11.40;;;;;;;;;;4937997;29;20038;-82
2021/01/12 11:41:16;;;;;;;29.95;10.98;;;;;;;;;;4937284;29;20111;-81
2021/01/12 11:43:43;;;;;;;38.13;11.40;;;;;;;;;;4937118;29;20073;-81
2021/01/12 11:46:09;;;;;;;24.83;8.98;;;;;;;;;;4937049;29;20088;-83
2021/01/12 11:48:37;;;;;;;35.47;10.82;;;;;;;;;;4937149;29;20355;-82
2021/01/12 11:51:03;;;;;;;35.03;9.63;;;;;;;;;;4936911;29;20047;-83
2021/01/12 11:53:29;;;;;;;27.38;10.75;;;;;;;;;;4937191;29;20024;-84
2021/01/12 11:55:56;;;;;;;30.73;10.30;;;;;;;;;;4938319;29;20030;-80
2021/01/12 11:58:22;;;;;;;22.98;9.02;;;;;;;;;;4938185;29;20071;-85
2021/01/12 12:00:48;;;;;;;32.63;11.52;;;;;;;;;;4936901;29;20055;-84
2021/01/12 12:03:14;;;;;;;28.30;10.45;;;;;;;;;;4936840;29;20027;-83
2021/01/12 12:05:40;;;;;;;30.27;9.48;;;;;;;;;;4936692;29;20111;-83
2021/01/12 12:08:06;;;;;;;30.10;10.45;;;;;;;;;;4937020;29;20028;-85
2021/01/12 12:10:32;;;;;;;40.67;11.57;;;;;;;;;;4937480;29;20118;-84
2021/01/12 12:12:58;;;;;;;31.20;12.02;;;;;;;;;;4940665;29;20126;-86
2021/01/12 12:15:25;;;;;;;31.65;9.48;;;;;;;;;;4939651;29;20031;-87
2021/01/12 12:17:51;;;;;;;31.42;11.05;;;;;;;;;;4936409;29;20034;-86
2021/01/12 12:20:17;;;;;;;26.35;10.18;;;;;;;;;;4939153;29;20039;-86
2021/01/12 12:22:43;;;;;;;32.47;9.40;;;;;;;;;;4936619;29;20028;-85
2021/01/12 12:25:10;;;;;;;31.30;10.90;;;;;;;;;;4937841;29;20063;-81
2021/01/12 12:27:37;;;;;;;32.95;10.40;;;;;;;;;;4937718;29;20024;-80
2021/01/12 12:30:06;;;;;;;30.92;10.25;;;;;;;;;;4937405;29;20496;-79
2021/01/12 12:32:32;;;;;;;31.40;11.02;;;;;;;;;;4936171;29;20059;-80
2021/01/12 12:34:58;;;;;;;33.80;10.55;;;;;;;;;;4938411;29;20503;-78
2021/01/12 12:37:25;;;;;;;35.03;10.77;;;;;;;;;;4934460;29;20032;-78
2021/01/12 12:39:51;;;;;;;34.40;11.40;;;;;;;;;;4933378;29;20028;-80
2021/01/12 12:42:17;;;;;;;29.77;11.07;;;;;;;;;;4933221;29;20716;-79
2021/01/12 12:44:44;;;;;;;32.88;10.68;;;;;;;;;;4923075;29;20036;-79
2021/01/12 12:47:11;;;;;;;25.58;9.50;;;;;;;;;;4919457;29;20036;-78
2021/01/12 12:49:37;;;;;;;30.00;10.32;;;;;;;;;;4926083;29;20396;-78
2021/01/12 12:52:05;;;;;;;35.65;12.65;;;;;;;;;;4934583;29;20051;-81
2021/01/12 12:54:31;;;;;;;32.28;10.05;;;;;;;;;;4935659;29;20039;-79
2021/01/12 12:56:59;;;;;;;31.85;11.68;;;;;;;;;;4935890;29;20027;-80
2021/01/12 12:59:25;;;;;;;36.88;11.50;;;;;;;;;;4936532;29;20091;-81
2021/01/12 13:01:52;;;;;;;37.08;12.02;;;;;;;;;;4935667;29;20020;-80
2021/01/12 13:04:18;;;;;;;32.83;10.57;;;;;;;;;;4935595;29;20078;-80
2021/01/12 13:06:51;;;;;;;28.35;10.93;;;;;;;;;;4929222;29;20024;-79
2021/01/12 13:09:18;;;;;;;35.13;12.25;;;;;;;;;;4926769;29;20031;-79
2021/01/12 13:11:45;;;;;;;26.80;11.77;;;;;;;;;;4924134;29;20035;-79
2021/01/12 13:14:12;;;;;;;31.80;11.18;;;;;;;;;;4927956;29;20473;-77
2021/01/12 13:16:41;;;;;;;35.50;13.35;;;;;;;;;;4933469;29;20032;-81
2021/01/12 13:19:11;;;;;;;35.85;14.02;;;;;;;;;;4937273;29;20098;-78
2021/01/12 13:21:37;;;;;;;37.58;12.10;;;;;;;;;;4936486;29;20035;-77
2021/01/12 13:24:04;;;;;;;33.17;13.27;;;;;;;;;;4935122;29;20561;-79
2021/01/12 13:26:30;;;;;;;36.88;13.32;;;;;;;;;;4930373;29;20031;-81
2021/01/12 13:28:56;;;;;;;31.23;9.73;;;;;;;;;;4941292;29;20106;-78
2021/01/12 13:31:23;;;;;;;33.20;12.70;;;;;;;;;;4938500;29;20092;-79
2021/01/12 13:33:49;;;;;;;34.88;12.52;;;;;;;;;;4941504;29;20429;-77
2021/01/12 13:36:16;;;;;;;41.03;13.95;;;;;;;;;;4935448;29;20032;-79
2021/01/12 13:38:42;;;;;;;31.67;10.85;;;;;;;;;;4928803;29;20106;-79
2021/01/12 13:41:08;;;;;;;32.30;11.90;;;;;;;;;;4917353;29;20031;-80
2021/01/12 13:43:34;;;;;;;28.65;11.43;;;;;;;;;;4916026;29;20032;-77
2021/01/12 13:46:07;;;;;;;31.55;10.95;;;;;;;;;;4916402;29;20076;-80
2021/01/12 13:48:34;;;;;;;29.98;11.43;;;;;;;;;;4917710;29;20507;-79
2021/01/12 13:51:00;;;;;;;35.92;12.45;;;;;;;;;;4920961;29;20032;-79
2021/01/12 13:53:27;;;;;;;36.90;12.23;;;;;;;;;;4915849;29;20557;-79
2021/01/12 13:55:54;;;;;;;29.75;10.52;;;;;;;;;;4917018;29;20051;-77
2021/01/12 13:58:21;;;;;;;32.88;11.32;;;;;;;;;;4915908;29;20481;-77
2021/01/12 14:00:47;;;;;;;29.92;10.65;;;;;;;;;;4917145;29;20035;-78
2021/01/12 14:03:13;;;;;;;26.63;11.02;;;;;;;;;;4917070;29;20040;-78
2021/01/12 14:05:39;;;;;;;21.88;9.50;;;;;;;;;;4917325;29;20028;-79
2021/01/12 14:08:05;;;;;;;31.42;12.38;;;;;;;;;;4915565;29;20032;-77
2021/01/12 14:10:34;;;;;;;30.92;12.07;;;;;;;;;;4915140;29;20051;-83
2021/01/12 14:13:01;;;;;;;24.40;9.77;;;;;;;;;;4916909;29;20028;-80
2021/01/12 14:15:28;;;;;;;22.98;9.70;;;;;;;;;;4915883;29;20031;-79
2021/01/12 14:17:56;;;;;;;25.88;10.35;;;;;;;;;;4926641;29;20030;-80
2021/01/12 14:20:23;;;;;;;27.95;11.30;;;;;;;;;;4934760;29;20090;-81
2021/01/12 14:22:50;;;;;;;28.60;9.85;;;;;;;;;;4935829;29;20384;-80
2021/01/12 14:25:17;;;;;;;23.38;9.80;;;;;;;;;;4934429;29;20059;-77
2021/01/12 14:27:43;;;;;;;26.52;11.63;;;;;;;;;;4934509;29;20428;-79
2021/01/12 14:30:10;;;;;;;30.98;10.85;;;;;;;;;;4935779;29;20030;-79
2021/01/12 14:32:36;;;;;;;30.02;10.93;;;;;;;;;;4934521;29;20075;-79
2021/01/12 14:35:04;;;;;;;24.52;10.43;;;;;;;;;;4935422;29;20035;-79
2021/01/12 14:37:37;;;;;;;21.77;10.30;;;;;;;;;;4935637;29;20032;-78
2021/01/12 14:40:04;;;;;;;;;;;;;;;;;;4936653;29;20039;-78
2021/01/12 14:42:30;;;;;;;27.58;9.73;;;;;;;;;;4934262;29;19906;-77
2021/01/12 14:44:56;;;;;;;26.65;10.32;;;;;;;;;;4934047;29;20070;-78
2021/01/12 14:47:23;;;;;;;30.77;11.85;;;;;;;;;;4931245;29;20118;-80
2021/01/12 14:49:49;;;;;;;30.42;10.85;;;;;;;;;;4935500;29;20380;-80
2021/01/12 14:52:16;;;;;;;26.52;12.02;;;;;;;;;;4935389;29;20024;-80
2021/01/12 14:54:42;;;;;;;33.35;13.35;;;;;;;;;;4935046;29;20489;-82
2021/01/12 14:57:08;;;;;;;27.50;12.23;;;;;;;;;;4935084;29;20028;-82
2021/01/12 14:59:38;;;;;;;34.67;11.70;;;;;;;;;;4934248;29;20046;-81
2021/01/12 15:02:04;;;;;;;30.48;12.50;;;;;;;;;;4928589;29;20020;-82
2021/01/12 15:04:31;;;;;;;29.40;11.68;;;;;;;;;;4934098;29;20397;-81
2021/01/12 15:06:57;;;;;;;27.00;11.32;;;;;;;;;;4926681;29;20027;-80
2021/01/12 15:09:23;;;;;;;29.48;11.77;;;;;;;;;;4926040;29;20034;-80
2021/01/12 15:11:50;;;;;;;31.30;10.65;;;;;;;;;;4930685;29;20055;-81
2021/01/12 15:14:16;;;;;;;28.13;11.50;;;;;;;;;;4931096;29;20024;-82
2021/01/12 15:16:44;;;;;;;26.38;12.32;;;;;;;;;;4933030;29;20055;-81
2021/01/12 15:19:10;;;;;;;29.65;12.05;;;;;;;;;;4928643;29;20048;-80
2021/01/12 15:21:36;;;;;;;28.88;11.32;;;;;;;;;;4925144;29;20038;-82
2021/01/12 15:24:02;;;;;;;32.22;13.35;;;;;;;;;;4928082;29;20040;-80
2021/01/12 15:26:28;;;;;;;28.70;12.70;;;;;;;;;;4926633;29;20027;-81
2021/01/12 15:28:54;;;;;;;37.42;12.88;;;;;;;;;;4928671;29;20086;-80
2021/01/12 15:31:21;;;;;;;31.92;12.60;;;;;;;;;;4926467;29;20031;-81
2021/01/12 15:33:47;;;;;;;27.35;10.18;;;;;;;;;;4925875;29;20477;-80
2021/01/12 15:36:16;;;;;;;33.70;13.05;;;;;;;;;;4932085;29;20114;-81
2021/01/12 15:38:43;;;;;;;31.15;11.00;;;;;;;;;;4937028;29;20160;-79
2021/01/12 15:41:10;;;;;;;32.05;12.68;;;;;;;;;;4936036;29;20036;-77
2021/01/12 15:43:36;;;;;;;29.70;11.27;;;;;;;;;;4925899;29;20036;-79
2021/01/12 15:46:03;;;;;;;29.77;12.40;;;;;;;;;;4924189;29;20040;-76
2021/01/12 15:48:29;;;;;;;35.35;12.95;;;;;;;;;;4931714;29;20028;-78
2021/01/12 15:50:55;;;;;;;32.78;13.15;;;;;;;;;;4924234;29;20496;-79
2021/01/12 15:53:21;;;;;;;44.28;15.00;;;;;;;;;;4922013;29;20031;-78
2021/01/12 15:55:47;;;;;;;37.50;13.73;;;;;;;;;;4917931;29;20029;-76
2021/01/12 15:58:14;;;;;;;37.00;16.42;;;;;;;;;;4922264;29;20032;-77
2021/01/12 16:00:41;;;;;;;34.53;14.38;;;;;;;;;;4918933;29;20036;-77
2021/01/12 16:03:07;;;;;;;40.08;14.98;;;;;;;;;;4917816;29;20035;-77
2021/01/12 16:05:33;;;;;;;38.10;15.13;;;;;;;;;;4917850;29;20040;-77
2021/01/12 16:08:02;;;;;;;33.60;13.43;;;;;;;;;;4917739;29;20462;-78
2021/01/12 16:10:30;;;;;;;35.47;13.95;;;;;;;;;;4917677;29;20030;-77
2021/01/12 16:12:57;;;;;;;42.35;13.98;;;;;;;;;;4917458;29;20032;-80
2021/01/12 16:15:25;;;;;;;47.95;15.68;;;;;;;;;;4926396;29;20020;-78
2021/01/12 16:17:55;;;;;;;42.67;15.70;;;;;;;;;;4936671;29;20028;-79
2021/01/12 16:20:24;;;;;;;41.30;15.25;;;;;;;;;;4937540;29;20039;-80
2021/01/12 16:22:53;;;;;;;36.83;14.55;;;;;;;;;;4936563;29;20031;-79
2021/01/12 16:25:20;;;;;;;39.35;15.68;;;;;;;;;;4935213;29;20039;-80
2021/01/12 16:27:56;;;;;;;37.83;13.45;;;;;;;;;;4918620;29;20025;-78
2021/01/12 16:30:23;;;;;;;35.30;14.02;;;;;;;;;;4917389;29;20070;-78
2021/01/12 16:32:57;;;;;;;36.25;14.50;;;;;;;;;;4918109;29;20023;-80
2021/01/12 16:35:23;;;;;;;38.13;13.75;;;;;;;;;;4918481;29;20422;-79
2021/01/12 16:37:50;;;;;;;40.38;14.02;;;;;;;;;;4918602;29;20409;-79
2021/01/12 16:40:17;;;;;;;43.55;15.40;;;;;;;;;;4917325;29;20032;-80
2021/01/12 16:42:54;;;;;;;36.53;14.38;;;;;;;;;;4917327;29;20119;-79
2021/01/12 16:45:26;;;;;;;41.22;14.50;;;;;;;;;;4916653;29;20032;-79
2021/01/12 16:47:52;;;;;;;39.00;14.50;;;;;;;;;;4918560;29;20091;-78
2021/01/12 16:50:19;;;;;;;40.05;16.17;;;;;;;;;;4930944;29;20366;-79
2021/01/12 16:52:57;;;;;;;39.00;14.10;;;;;;;;;;4935685;29;20126;-79
2021/01/12 16:55:23;;;;;;;37.15;13.40;;;;;;;;;;4940252;29;20019;-78
2021/01/12 16:57:51;;;;;;;42.03;13.48;;;;;;;;;;4926918;29;20031;-80
2021/01/12 17:00:18;;;;;;;41.88;15.02;;;;;;;;;;4922420;29;20016;-79
2021/01/12 17:02:47;;;;;;;38.05;14.60;;;;;;;;;;4928504;29;20373;-80
2021/01/12 17:05:14;;;;;;;40.35;14.65;;;;;;;;;;4923432;29;20047;-80
2021/01/12 17:07:41;;;;;;;44.05;15.43;;;;;;;;;;4917613;29;20035;-79
2021/01/12 17:10:12;;;;;;;60.75;16.48;;;;;;;;;;4934982;29;20031;-78
2021/01/12 17:12:39;;;;;;;47.53;14.93;;;;;;;;;;4935618;29;20389;-79
2021/01/12 17:15:09;;;;;;;38.55;15.38;;;;;;;;;;4935589;29;20485;-79
2021/01/12 17:17:36;;;;;;;45.30;15.43;;;;;;;;;;4926537;29;20030;-80
2021/01/12 17:20:23;;;;;;;43.20;14.60;;;;;;;;;;4916168;29;20417;-77
2021/01/12 17:22:50;;;;;;;42.42;13.98;;;;;;;;;;4921864;29;20032;-77
2021/01/12 17:25:25;;;;;;;39.72;14.30;;;;;;;;;;4936229;29;20106;-80
2021/01/12 17:27:55;;;;;;;45.55;13.85;;;;;;;;;;4936593;29;20028;-76
2021/01/12 17:30:23;;;;;;;39.30;14.50;;;;;;;;;;4926103;29;20024;-78
2021/01/12 17:32:50;;;;;;;38.45;13.35;;;;;;;;;;4932689;29;20115;-78
2021/01/12 17:35:17;;;;;;;39.40;14.55;;;;;;;;;;4916007;29;20119;-78
2021/01/12 17:37:45;;;;;;;41.88;14.98;;;;;;;;;;4922514;29;20400;-78
2021/01/12 17:40:11;;;;;;;32.78;14.48;;;;;;;;;;4936438;29;20034;-78
2021/01/12 17:42:38;;;;;;;41.75;15.88;;;;;;;;;;4936002;29;20329;-79
2021/01/12 17:45:05;;;;;;;53.33;15.70;;;;;;;;;;4934634;29;20035;-77
2021/01/12 17:47:41;;;;;;;43.25;16.08;;;;;;;;;;4918066;29;20107;-77
2021/01/12 17:50:10;;;;;;;49.10;17.85;;;;;;;;;;4916044;29;20028;-77
2021/01/12 17:52:40;;;;;;;38.92;15.00;;;;;;;;;;4915899;29;20028;-77
2021/01/12 17:55:07;;;;;;;52.25;18.17;;;;;;;;;;4915657;29;20036;-77
2021/01/12 17:57:33;;;;;;;42.97;16.55;;;;;;;;;;4917105;29;20056;-79
2021/01/12 17:59:59;;;;;;;44.67;16.77;;;;;;;;;;4915844;29;20478;-79
2021/01/12 18:02:29;;;;;;;56.67;18.98;;;;;;;;;;4915772;29;20024;-79
2021/01/12 18:04:55;;;;;;;41.92;17.70;;;;;;;;;;4925568;29;20039;-79
2021/01/12 18:07:25;;;;;;;36.97;14.80;;;;;;;;;;4934613;29;20060;-82
2021/01/12 18:09:55;;;;;;;52.33;16.73;;;;;;;;;;4934798;29;20424;-81
2021/01/12 18:12:23;;;;;;;42.33;16.73;;;;;;;;;;4934663;29;20028;-80
2021/01/12 18:14:50;;;;;;;48.15;15.43;;;;;;;;;;4937221;29;20031;-79
2021/01/12 18:17:16;;;;;;;44.25;16.67;;;;;;;;;;4934781;29;20040;-81
2021/01/12 18:19:42;;;;;;;37.47;15.52;;;;;;;;;;4934605;29;20055;-82
2021/01/12 18:22:18;;;;;;;49.08;17.42;;;;;;;;;;4934804;29;20844;-79
2021/01/12 18:24:45;;;;;;;39.90;15.15;;;;;;;;;;4935843;29;20067;-79
2021/01/12 18:27:17;;;;;;;37.40;15.63;;;;;;;;;;4934275;29;20020;-82
2021/01/12 18:29:47;;;;;;;47.70;14.68;;;;;;;;;;4934342;29;20024;-79
2021/01/12 18:32:13;;;;;;;42.90;16.25;;;;;;;;;;4934440;29;20036;-79
2021/01/12 18:34:39;;;;;;;41.95;14.77;;;;;;;;;;4935644;29;20078;-79
2021/01/12 18:37:06;;;;;;;42.60;16.25;;;;;;;;;;4934972;29;20024;-79
2021/01/12 18:39:36;;;;;;;46.00;15.93;;;;;;;;;;4935896;29;20031;-79
2021/01/12 18:42:03;;;;;;;41.65;14.52;;;;;;;;;;4934948;29;20043;-78
2021/01/12 18:44:31;;;;;;;44.60;15.88;;;;;;;;;;4934588;29;20039;-77
2021/01/12 18:46:58;;;;;;;39.88;14.23;;;;;;;;;;4934365;29;20114;-78
2021/01/12 18:49:24;;;;;;;32.75;12.98;;;;;;;;;;4935594;29;20508;-78
2021/01/12 18:51:51;;;;;;;38.13;14.05;;;;;;;;;;4934396;29;20051;-78
2021/01/12 18:54:18;;;;;;;38.65;14.45;;;;;;;;;;4934451;29;20035;-83
2021/01/12 18:56:45;;;;;;;32.13;13.20;;;;;;;;;;4935088;29;20027;-83
2021/01/12 18:59:12;;;;;;;30.25;12.65;;;;;;;;;;4939568;29;20489;-83
2021/01/12 19:01:38;;;;;;;34.15;14.13;;;;;;;;;;4940112;29;20023;-78
2021/01/12 19:04:06;;;;;;;36.20;13.68;;;;;;;;;;4938110;29;20049;-78
2021/01/12 19:06:33;;;;;;;31.52;12.60;;;;;;;;;;4938034;29;20087;-80
2021/01/12 19:09:00;;;;;;;30.67;12.45;;;;;;;;;;4939453;29;20036;-81
2021/01/12 19:11:26;;;;;;;40.60;15.15;;;;;;;;;;4938053;29;20123;-82
2021/01/12 19:13:56;;;;;;;33.85;13.35;;;;;;;;;;4938128;29;20038;-81
2021/01/12 19:16:22;;;;;;;30.98;12.80;;;;;;;;;;4937742;29;20559;-81
2021/01/12 19:18:50;;;;;;;35.53;13.13;;;;;;;;;;4938494;29;20138;-81